WRS OVERALL

Overall Series Table

Standings
Position Name Age Gender Time  Average HR  Average Power Average WPKG Result Okay?#
1 Jan Deca 34 male 01:06:39           163 355 4.444 W/KG Validation Required
2 Otto Friberg 38 male 01:06:59           172 357 4.691 W/KG Validation Required
3 James Melville 53 male 01:07:53           164 274 4.155 W/KG Result Okay
4 Joeri Del. 27 male 01:07:53              –   238 3.846 W/KG Result Okay
5 John Sammut 20 male 01:07:53              –   315 4.097 W/KG Result Okay
6 Alasdair Mcalpine 33 male 01:07:53           177 268 4.626 W/KG Validation Required
7 Mike Swart [+r] 39 male 01:07:54           140 271 4.11 W/KG Result Okay
8 .. Dan j. 26 male 01:07:54           141 284 3.788 W/KG Result Okay
9 Igor Kopse 45 male 01:08:58           157 306 3.927 W/KG Result Okay
10 Nik Hall 46 male 01:09:20           155 295 4.269 W/KG Result Okay
11 Wout Hartveld 20 male 01:10:39              –   285 3.798 W/KG Result Okay
12 Maxime Turcotte 36 male 01:10:39              –   282 4.344 W/KG Result Okay
13 Mike Lister 34 male 01:10:58           173 288 3.648 W/KG Result Okay
14 Mathias  Bergkvist  43 male 01:11:00           170 319 3.839 W/KG Result Okay
15 James Vickers 38 male 01:11:00           158 274 3.865 W/KG Result Okay
16 Christiaan Riemens 28 male 01:12:40           158 272 3.681 W/KG Result Okay
17 Andrzej Krajewski 41 male 01:12:58           148 265 3.631 W/KG Result Okay
18 Chris O’hearn 53 male 01:12:58           140 273 3.502 W/KG Result Okay
19 Troy Tomkinson 36 male 01:12:58              –   267 3.379 W/KG Result Okay
20 Joris Schepers 34 male 01:13:00           166 245 3.653 W/KG Result Okay
21 Alex Lex 26 male 01:13:11              –   244 3.174 W/KG Result Okay
22 Joseluis L. 60 male 01:13:32           148 354 3.576 W/KG Result Okay
23 Nate Preston 32 male 01:14:25           162 234 3.251 W/KG Result Okay
24 Jørgen Van bers 43 male 01:14:58              –   252 3.505 W/KG Result Okay
25 Scott Kerry 43 male 01:14:59              –   274 3.649 W/KG Result Okay
26 Sebastian Buschmann 36 male 01:15:23           143 226 3.366 W/KG Result Okay
27 Andrew Dinnen 44 male 01:15:23           149 287 3.021 W/KG Result Okay
28 Ben Phillips 31 male 01:15:29              –   250 3.207 W/KG Result Okay
29 Darrin De groot 41 male 01:15:31              –   272 3.624 W/KG Result Okay
30 Matthew White 48 male 01:15:31           150 250 3.294 W/KG Result Okay
31 Thorben Bohling 34 male 01:15:37              –   280 3.368 W/KG Result Okay
32 Hans Persson 53 male 01:15:46           147 290 3.414 W/KG Result Okay
33 Stephen  Couper  44 male 01:15:48           153 257 3.624 W/KG Result Okay
34 John Bytheway 57 male 01:17:46           169 224 3.5 W/KG Result Okay
35 Aurélien Didier 33 male 01:17:50           154 218 3.522 W/KG Result Okay
36 Tony Symons 59 male 01:17:59           148 277 3.75 W/KG Result Okay
37 Bryan Macdonald 0 male 01:19:21              –   258 3.303 W/KG Validation Required
38 Marco Swierstra 27 male 01:19:21              –   243 3.466 W/KG Result Okay
39 .. Torks 47 male 01:19:21           163 243 3.242 W/KG Result Okay
40 Stephen Bellio 62 male 01:19:22           131 237 3.246 W/KG Result Okay
41 Rogan Costello 29 male 01:20:06           158 260 3.134 W/KG Result Okay
42 *jason  Gilesy 38 male 01:20:14           153 283 3.139 W/KG Result Okay
43 Brian Chr 50 male 01:20:14           166 286 2.891 W/KG Result Okay
44 Stefan De munck 42 male 01:20:41           163 258 3.225 W/KG Result Okay
45 Holly Larsen 48 female 01:21:31              –   205 3.365 W/KG Result Okay
46 Anton Wouters 48 male 01:21:31           162 244 2.908 W/KG Result Okay
47 Jorge  Roldán  40 male 01:22:11              –   280 2.67 W/KG Result Okay
48 Thiemen Adams 17 male 01:23:54              –   184 3.237 W/KG Result Okay
49 Mr-canoe Mr.canoe 53 male 01:23:57           157 216 3.137 W/KG Result Okay
50 Michael Brunner 48 male 01:24:21           165 197 2.985 W/KG Result Okay
51 Danie  Steyn  31 male 01:24:39           154 233 2.587 W/KG Result Okay
52 Steve Page 42 male 01:24:46              –   229 3.059 W/KG Result Okay
53 Aled Williams 45 male 01:25:26           166 207 2.914 W/KG Result Okay
54 Emily Charnell 41 female 01:26:37              –   186 3.155 W/KG Result Okay
55 //shayne/ /shayne 54 male 01:27:04           126 230 2.672 W/KG Result Okay
56 Alberto Sacchini 53 male 01:27:36           156 217 2.897 W/KG Result Okay
57 Julian Mahecha 42 male 01:28:51              –   231 2.512 W/KG Result Okay
58 Ryan Vinz 35 male 01:31:25           151 173 2.576 W/KG Result Okay
59 Yahya Öksüzoglu 43 male 01:34:16              –   178 2.223 W/KG Result Okay
60 Edwin Dingjan 51 male 01:35:47           134 178 2.342 W/KG Result Okay
61 Julien  Nycz 39 male 01:35:56           171 179 2.484 W/KG Result Okay
62 Matt Wulff 30 male 01:48:38              –   152 1.902 W/KG Result Okay
63 Martin Andreasen 46 male 01:52:33              –   176 1.466 W/KG Result Okay

 

CHAPTER ONE

THE CLASSICs

The Amstel Racing Race

After both events

Position Name Age Gender Time  Average HR  Average Power Average WPKG Result Okay?#
1 Jan Deca 34 male 01:06:39           163 355 4.444 W/KG Validation Required
2 Otto Friberg 38 male 01:06:59           172 357 4.691 W/KG Validation Required
3 James Melville 53 male 01:07:53           164 274 4.155 W/KG Result Okay
4 Joeri Del. 27 male 01:07:53              –   238 3.846 W/KG Result Okay
5 John Sammut 20 male 01:07:53              –   315 4.097 W/KG Result Okay
6 Alasdair Mcalpine 33 male 01:07:53           177 268 4.626 W/KG Validation Required
7 Mike Swart [+r] 39 male 01:07:54           140 271 4.11 W/KG Result Okay
8 .. Dan j. 26 male 01:07:54           141 284 3.788 W/KG Result Okay
9 Igor Kopse 45 male 01:08:58           157 306 3.927 W/KG Result Okay
10 Nik Hall 46 male 01:09:20           155 295 4.269 W/KG Result Okay
11 Wout Hartveld 20 male 01:10:39              –   285 3.798 W/KG Result Okay
12 Maxime Turcotte 36 male 01:10:39              –   282 4.344 W/KG Result Okay
13 Mike Lister 34 male 01:10:58           173 288 3.648 W/KG Result Okay
14 Mathias  Bergkvist  43 male 01:11:00           170 319 3.839 W/KG Result Okay
15 James Vickers 38 male 01:11:00           158 274 3.865 W/KG Result Okay
16 Christiaan Riemens 28 male 01:12:40           158 272 3.681 W/KG Result Okay
17 Andrzej Krajewski 41 male 01:12:58           148 265 3.631 W/KG Result Okay
18 Chris O’hearn 53 male 01:12:58           140 273 3.502 W/KG Result Okay
19 Troy Tomkinson 36 male 01:12:58              –   267 3.379 W/KG Result Okay
20 Joris Schepers 34 male 01:13:00           166 245 3.653 W/KG Result Okay
21 Alex Lex 26 male 01:13:11              –   244 3.174 W/KG Result Okay
22 Joseluis L. 60 male 01:13:32           148 354 3.576 W/KG Result Okay
23 Nate Preston 32 male 01:14:25           162 234 3.251 W/KG Result Okay
24 Jørgen Van bers 43 male 01:14:58              –   252 3.505 W/KG Result Okay
25 Scott Kerry 43 male 01:14:59              –   274 3.649 W/KG Result Okay
26 Sebastian Buschmann 36 male 01:15:23           143 226 3.366 W/KG Result Okay
27 Andrew Dinnen 44 male 01:15:23           149 287 3.021 W/KG Result Okay
28 Ben Phillips 31 male 01:15:29              –   250 3.207 W/KG Result Okay
29 Darrin De groot 41 male 01:15:31              –   272 3.624 W/KG Result Okay
30 Matthew White 48 male 01:15:31           150 250 3.294 W/KG Result Okay
31 Thorben Bohling 34 male 01:15:37              –   280 3.368 W/KG Result Okay
32 Hans Persson 53 male 01:15:46           147 290 3.414 W/KG Result Okay
33 Stephen  Couper  44 male 01:15:48           153 257 3.624 W/KG Result Okay
34 John Bytheway 57 male 01:17:46           169 224 3.5 W/KG Result Okay
35 Aurélien Didier 33 male 01:17:50           154 218 3.522 W/KG Result Okay
36 Tony Symons 59 male 01:17:59           148 277 3.75 W/KG Result Okay
37 Bryan Macdonald 0 male 01:19:21              –   258 3.303 W/KG Validation Required
38 Marco Swierstra 27 male 01:19:21              –   243 3.466 W/KG Result Okay
39 .. Torks 47 male 01:19:21           163 243 3.242 W/KG Result Okay
40 Stephen Bellio 62 male 01:19:22           131 237 3.246 W/KG Result Okay
41 Rogan Costello 29 male 01:20:06           158 260 3.134 W/KG Result Okay
42 *jason  Gilesy 38 male 01:20:14           153 283 3.139 W/KG Result Okay
43 Brian Chr 50 male 01:20:14           166 286 2.891 W/KG Result Okay
44 Stefan De munck 42 male 01:20:41           163 258 3.225 W/KG Result Okay
45 Holly Larsen 48 female 01:21:31              –   205 3.365 W/KG Result Okay
46 Anton Wouters 48 male 01:21:31           162 244 2.908 W/KG Result Okay
47 Jorge  Roldán  40 male 01:22:11              –   280 2.67 W/KG Result Okay
48 Thiemen Adams 17 male 01:23:54              –   184 3.237 W/KG Result Okay
49 Mr-canoe Mr.canoe 53 male 01:23:57           157 216 3.137 W/KG Result Okay
50 Michael Brunner 48 male 01:24:21           165 197 2.985 W/KG Result Okay
51 Danie  Steyn  31 male 01:24:39           154 233 2.587 W/KG Result Okay
52 Steve Page 42 male 01:24:46              –   229 3.059 W/KG Result Okay
53 Aled Williams 45 male 01:25:26           166 207 2.914 W/KG Result Okay
54 Emily Charnell 41 female 01:26:37              –   186 3.155 W/KG Result Okay
55 //shayne/ /shayne 54 male 01:27:04           126 230 2.672 W/KG Result Okay
56 Alberto Sacchini 53 male 01:27:36           156 217 2.897 W/KG Result Okay
57 Julian Mahecha 42 male 01:28:51              –   231 2.512 W/KG Result Okay
58 Ryan Vinz 35 male 01:31:25           151 173 2.576 W/KG Result Okay
59 Yahya Öksüzoglu 43 male 01:34:16              –   178 2.223 W/KG Result Okay
60 Edwin Dingjan 51 male 01:35:47           134 178 2.342 W/KG Result Okay
61 Julien  Nycz 39 male 01:35:56           171 179 2.484 W/KG Result Okay
62 Matt Wulff 30 male 01:48:38              –   152 1.902 W/KG Result Okay
63 Martin Andreasen 46 male 01:52:33              –   176 1.466 W/KG Result Okay

 

L'enfer en France

No Results Yet

The Lion of Flanders

No Results Yet

Chapter One
Position Name Age Gender Time  Average HR  Average Power Average WPKG Result Okay?#
1 Jan Deca 34 male 01:06:39           163 355 4.444 W/KG Validation Required
2 Otto Friberg 38 male 01:06:59           172 357 4.691 W/KG Validation Required
3 James Melville 53 male 01:07:53           164 274 4.155 W/KG Result Okay
4 Joeri Del. 27 male 01:07:53              –   238 3.846 W/KG Result Okay
5 John Sammut 20 male 01:07:53              –   315 4.097 W/KG Result Okay
6 Alasdair Mcalpine 33 male 01:07:53           177 268 4.626 W/KG Validation Required
7 Mike Swart [+r] 39 male 01:07:54           140 271 4.11 W/KG Result Okay
8 .. Dan j. 26 male 01:07:54           141 284 3.788 W/KG Result Okay
9 Igor Kopse 45 male 01:08:58           157 306 3.927 W/KG Result Okay
10 Nik Hall 46 male 01:09:20           155 295 4.269 W/KG Result Okay
11 Wout Hartveld 20 male 01:10:39              –   285 3.798 W/KG Result Okay
12 Maxime Turcotte 36 male 01:10:39              –   282 4.344 W/KG Result Okay
13 Mike Lister 34 male 01:10:58           173 288 3.648 W/KG Result Okay
14 Mathias  Bergkvist  43 male 01:11:00           170 319 3.839 W/KG Result Okay
15 James Vickers 38 male 01:11:00           158 274 3.865 W/KG Result Okay
16 Christiaan Riemens 28 male 01:12:40           158 272 3.681 W/KG Result Okay
17 Andrzej Krajewski 41 male 01:12:58           148 265 3.631 W/KG Result Okay
18 Chris O’hearn 53 male 01:12:58           140 273 3.502 W/KG Result Okay
19 Troy Tomkinson 36 male 01:12:58              –   267 3.379 W/KG Result Okay
20 Joris Schepers 34 male 01:13:00           166 245 3.653 W/KG Result Okay
21 Alex Lex 26 male 01:13:11              –   244 3.174 W/KG Result Okay
22 Joseluis L. 60 male 01:13:32           148 354 3.576 W/KG Result Okay
23 Nate Preston 32 male 01:14:25           162 234 3.251 W/KG Result Okay
24 Jørgen Van bers 43 male 01:14:58              –   252 3.505 W/KG Result Okay
25 Scott Kerry 43 male 01:14:59              –   274 3.649 W/KG Result Okay
26 Sebastian Buschmann 36 male 01:15:23           143 226 3.366 W/KG Result Okay
27 Andrew Dinnen 44 male 01:15:23           149 287 3.021 W/KG Result Okay
28 Ben Phillips 31 male 01:15:29              –   250 3.207 W/KG Result Okay
29 Darrin De groot 41 male 01:15:31              –   272 3.624 W/KG Result Okay
30 Matthew White 48 male 01:15:31           150 250 3.294 W/KG Result Okay
31 Thorben Bohling 34 male 01:15:37              –   280 3.368 W/KG Result Okay
32 Hans Persson 53 male 01:15:46           147 290 3.414 W/KG Result Okay
33 Stephen  Couper  44 male 01:15:48           153 257 3.624 W/KG Result Okay
34 John Bytheway 57 male 01:17:46           169 224 3.5 W/KG Result Okay
35 Aurélien Didier 33 male 01:17:50           154 218 3.522 W/KG Result Okay
36 Tony Symons 59 male 01:17:59           148 277 3.75 W/KG Result Okay
37 Bryan Macdonald 0 male 01:19:21              –   258 3.303 W/KG Validation Required
38 Marco Swierstra 27 male 01:19:21              –   243 3.466 W/KG Result Okay
39 .. Torks 47 male 01:19:21           163 243 3.242 W/KG Result Okay
40 Stephen Bellio 62 male 01:19:22           131 237 3.246 W/KG Result Okay
41 Rogan Costello 29 male 01:20:06           158 260 3.134 W/KG Result Okay
42 *jason  Gilesy 38 male 01:20:14           153 283 3.139 W/KG Result Okay
43 Brian Chr 50 male 01:20:14           166 286 2.891 W/KG Result Okay
44 Stefan De munck 42 male 01:20:41           163 258 3.225 W/KG Result Okay
45 Holly Larsen 48 female 01:21:31              –   205 3.365 W/KG Result Okay
46 Anton Wouters 48 male 01:21:31           162 244 2.908 W/KG Result Okay
47 Jorge  Roldán  40 male 01:22:11              –   280 2.67 W/KG Result Okay
48 Thiemen Adams 17 male 01:23:54              –   184 3.237 W/KG Result Okay
49 Mr-canoe Mr.canoe 53 male 01:23:57           157 216 3.137 W/KG Result Okay
50 Michael Brunner 48 male 01:24:21           165 197 2.985 W/KG Result Okay
51 Danie  Steyn  31 male 01:24:39           154 233 2.587 W/KG Result Okay
52 Steve Page 42 male 01:24:46              –   229 3.059 W/KG Result Okay
53 Aled Williams 45 male 01:25:26           166 207 2.914 W/KG Result Okay
54 Emily Charnell 41 female 01:26:37              –   186 3.155 W/KG Result Okay
55 //shayne/ /shayne 54 male 01:27:04           126 230 2.672 W/KG Result Okay
56 Alberto Sacchini 53 male 01:27:36           156 217 2.897 W/KG Result Okay
57 Julian Mahecha 42 male 01:28:51              –   231 2.512 W/KG Result Okay
58 Ryan Vinz 35 male 01:31:25           151 173 2.576 W/KG Result Okay
59 Yahya Öksüzoglu 43 male 01:34:16              –   178 2.223 W/KG Result Okay
60 Edwin Dingjan 51 male 01:35:47           134 178 2.342 W/KG Result Okay
61 Julien  Nycz 39 male 01:35:56           171 179 2.484 W/KG Result Okay
62 Matt Wulff 30 male 01:48:38              –   152 1.902 W/KG Result Okay
63 Martin Andreasen 46 male 01:52:33              –   176 1.466 W/KG Result Okay

CHAPTER TWO

Something Less Ordinary

Toro One Day

No Results Yet

Bright City Crit

No Results Yet

Far De Formentor

No Results Yet

Chapter Two

No Results Yet

The results table will be updated within 24 hours of the event.

If you have been highlighted as “Needs Validation” please contact john@rgtcling.com for more information on what to do next.